sensor_id;sensor_type;location;lat;lon;timestamp;P1;durP1;ratioP1;P2;durP2;ratioP2
9536;SDS011;4807;48.024;11.726;2022-10-17T00:00:50;3.73;;;1.53;;
9536;SDS011;4807;48.024;11.726;2022-10-17T00:03:59;5.97;;;1.37;;
9536;SDS011;4807;48.024;11.726;2022-10-17T00:07:07;3.83;;;1.13;;
9536;SDS011;4807;48.024;11.726;2022-10-17T00:10:15;3.10;;;1.03;;
9536;SDS011;4807;48.024;11.726;2022-10-17T00:13:26;1.07;;;1.00;;
9536;SDS011;4807;48.024;11.726;2022-10-17T00:16:35;3.70;;;1.03;;
9536;SDS011;4807;48.024;11.726;2022-10-17T00:19:44;1.10;;;1.00;;
9536;SDS011;4807;48.024;11.726;2022-10-17T00:22:52;1.33;;;1.07;;
9536;SDS011;4807;48.024;11.726;2022-10-17T00:26:00;0.80;;;0.80;;
9536;SDS011;4807;48.024;11.726;2022-10-17T00:29:13;1.60;;;1.10;;
9536;SDS011;4807;48.024;11.726;2022-10-17T00:32:22;2.03;;;1.00;;
9536;SDS011;4807;48.024;11.726;2022-10-17T00:35:31;4.27;;;1.20;;
9536;SDS011;4807;48.024;11.726;2022-10-17T00:38:40;1.20;;;1.10;;
9536;SDS011;4807;48.024;11.726;2022-10-17T00:41:51;2.03;;;1.20;;
9536;SDS011;4807;48.024;11.726;2022-10-17T00:45:03;4.23;;;1.43;;
9536;SDS011;4807;48.024;11.726;2022-10-17T00:48:23;1.40;;;1.17;;
9536;SDS011;4807;48.024;11.726;2022-10-17T00:51:34;0.80;;;0.80;;
9536;SDS011;4807;48.024;11.726;2022-10-17T00:54:50;1.93;;;1.20;;
9536;SDS011;4807;48.024;11.726;2022-10-17T00:58:05;3.87;;;1.40;;
9536;SDS011;4807;48.024;11.726;2022-10-17T01:01:16;4.43;;;1.57;;
9536;SDS011;4807;48.024;11.726;2022-10-17T01:04:25;2.17;;;1.00;;
9536;SDS011;4807;48.024;11.726;2022-10-17T01:07:34;2.87;;;1.40;;
9536;SDS011;4807;48.024;11.726;2022-10-17T01:10:46;1.83;;;1.20;;
9536;SDS011;4807;48.024;11.726;2022-10-17T01:14:12;1.83;;;1.20;;
9536;SDS011;4807;48.024;11.726;2022-10-17T01:17:37;1.20;;;1.10;;
9536;SDS011;4807;48.024;11.726;2022-10-17T01:21:04;2.07;;;1.33;;
9536;SDS011;4807;48.024;11.726;2022-10-17T01:28:46;2.50;;;1.40;;
9536;SDS011;4807;48.024;11.726;2022-10-17T01:32:21;1.30;;;1.20;;
9536;SDS011;4807;48.024;11.726;2022-10-17T01:35:38;1.20;;;0.93;;
9536;SDS011;4807;48.024;11.726;2022-10-17T01:39:00;3.07;;;0.97;;
9536;SDS011;4807;48.024;11.726;2022-10-17T01:42:20;1.10;;;1.00;;
9536;SDS011;4807;48.024;11.726;2022-10-17T01:45:40;2.97;;;1.00;;
9536;SDS011;4807;48.024;11.726;2022-10-17T01:48:58;1.43;;;0.80;;
9536;SDS011;4807;48.024;11.726;2022-10-17T01:52:11;1.27;;;0.73;;
9536;SDS011;4807;48.024;11.726;2022-10-17T01:55:26;2.07;;;1.00;;
9536;SDS011;4807;48.024;11.726;2022-10-17T01:58:42;1.20;;;1.07;;
9536;SDS011;4807;48.024;11.726;2022-10-17T02:01:57;1.50;;;0.90;;
9536;SDS011;4807;48.024;11.726;2022-10-17T02:05:09;2.40;;;0.70;;
9536;SDS011;4807;48.024;11.726;2022-10-17T02:08:38;1.53;;;0.90;;
9536;SDS011;4807;48.024;11.726;2022-10-17T02:12:00;1.13;;;1.00;;
9536;SDS011;4807;48.024;11.726;2022-10-17T02:15:32;1.27;;;1.17;;
9536;SDS011;4807;48.024;11.726;2022-10-17T02:22:50;4.10;;;1.00;;
9536;SDS011;4807;48.024;11.726;2022-10-17T02:26:05;4.10;;;1.17;;
9536;SDS011;4807;48.024;11.726;2022-10-17T02:29:22;4.00;;;1.20;;
9536;SDS011;4807;48.024;11.726;2022-10-17T02:32:42;1.17;;;1.07;;
9536;SDS011;4807;48.024;11.726;2022-10-17T02:36:03;0.87;;;0.80;;
9536;SDS011;4807;48.024;11.726;2022-10-17T02:39:21;2.90;;;1.07;;
9536;SDS011;4807;48.024;11.726;2022-10-17T02:42:35;1.17;;;1.03;;
9536;SDS011;4807;48.024;11.726;2022-10-17T02:45:45;3.33;;;0.97;;
9536;SDS011;4807;48.024;11.726;2022-10-17T02:48:55;1.43;;;1.20;;
9536;SDS011;4807;48.024;11.726;2022-10-17T02:52:09;1.37;;;1.27;;
9536;SDS011;4807;48.024;11.726;2022-10-17T02:55:27;1.10;;;1.00;;
9536;SDS011;4807;48.024;11.726;2022-10-17T02:58:40;3.03;;;1.00;;
9536;SDS011;4807;48.024;11.726;2022-10-17T03:01:54;1.50;;;0.90;;
9536;SDS011;4807;48.024;11.726;2022-10-17T03:05:03;1.00;;;0.80;;
9536;SDS011;4807;48.024;11.726;2022-10-17T03:08:13;0.93;;;0.93;;
9536;SDS011;4807;48.024;11.726;2022-10-17T03:11:23;1.60;;;1.40;;
9536;SDS011;4807;48.024;11.726;2022-10-17T03:14:31;1.97;;;1.23;;
9536;SDS011;4807;48.024;11.726;2022-10-17T03:17:41;1.43;;;1.30;;
9536;SDS011;4807;48.024;11.726;2022-10-17T03:20:52;2.20;;;1.20;;
9536;SDS011;4807;48.024;11.726;2022-10-17T03:24:00;2.20;;;1.30;;
9536;SDS011;4807;48.024;11.726;2022-10-17T03:27:10;2.67;;;1.07;;
9536;SDS011;4807;48.024;11.726;2022-10-17T03:30:19;0.80;;;0.80;;
9536;SDS011;4807;48.024;11.726;2022-10-17T03:33:28;1.30;;;1.00;;
9536;SDS011;4807;48.024;11.726;2022-10-17T03:36:36;2.40;;;1.00;;
9536;SDS011;4807;48.024;11.726;2022-10-17T03:39:45;3.20;;;0.93;;
9536;SDS011;4807;48.024;11.726;2022-10-17T03:42:55;1.30;;;1.03;;
9536;SDS011;4807;48.024;11.726;2022-10-17T03:46:04;2.97;;;0.87;;
9536;SDS011;4807;48.024;11.726;2022-10-17T03:49:14;3.53;;;0.80;;
9536;SDS011;4807;48.024;11.726;2022-10-17T03:52:23;4.10;;;1.00;;
9536;SDS011;4807;48.024;11.726;2022-10-17T03:55:32;3.03;;;0.80;;
9536;SDS011;4807;48.024;11.726;2022-10-17T03:58:42;2.63;;;1.07;;
9536;SDS011;4807;48.024;11.726;2022-10-17T04:01:52;1.87;;;1.03;;
9536;SDS011;4807;48.024;11.726;2022-10-17T04:05:01;2.33;;;1.10;;
9536;SDS011;4807;48.024;11.726;2022-10-17T04:08:09;1.23;;;0.93;;
9536;SDS011;4807;48.024;11.726;2022-10-17T04:11:41;2.63;;;0.97;;
9536;SDS011;4807;48.024;11.726;2022-10-17T04:14:50;2.33;;;2.00;;
9536;SDS011;4807;48.024;11.726;2022-10-17T04:18:00;2.37;;;1.53;;
9536;SDS011;4807;48.024;11.726;2022-10-17T04:21:14;4.67;;;1.70;;
9536;SDS011;4807;48.024;11.726;2022-10-17T04:24:23;1.77;;;1.40;;
9536;SDS011;4807;48.024;11.726;2022-10-17T04:27:47;4.57;;;1.90;;
9536;SDS011;4807;48.024;11.726;2022-10-17T04:31:00;4.17;;;2.23;;
9536;SDS011;4807;48.024;11.726;2022-10-17T04:34:17;8.10;;;3.90;;
9536;SDS011;4807;48.024;11.726;2022-10-17T04:37:27;5.37;;;3.03;;
9536;SDS011;4807;48.024;11.726;2022-10-17T04:40:39;5.87;;;2.93;;
9536;SDS011;4807;48.024;11.726;2022-10-17T04:43:48;4.97;;;2.00;;
9536;SDS011;4807;48.024;11.726;2022-10-17T04:47:00;2.30;;;1.17;;
9536;SDS011;4807;48.024;11.726;2022-10-17T04:50:09;1.83;;;1.40;;
9536;SDS011;4807;48.024;11.726;2022-10-17T04:53:19;1.93;;;1.53;;
9536;SDS011;4807;48.024;11.726;2022-10-17T04:56:28;2.43;;;1.60;;
9536;SDS011;4807;48.024;11.726;2022-10-17T05:00:01;1.87;;;1.77;;
9536;SDS011;4807;48.024;11.726;2022-10-17T05:03:27;2.40;;;2.20;;
9536;SDS011;4807;48.024;11.726;2022-10-17T05:06:35;6.50;;;3.00;;
9536;SDS011;4807;48.024;11.726;2022-10-17T05:10:13;2.27;;;1.50;;
9536;SDS011;4807;48.024;11.726;2022-10-17T05:13:24;1.97;;;1.53;;
9536;SDS011;4807;48.024;11.726;2022-10-17T05:16:33;3.53;;;1.97;;
9536;SDS011;4807;48.024;11.726;2022-10-17T05:19:43;2.30;;;1.57;;
9536;SDS011;4807;48.024;11.726;2022-10-17T05:22:52;2.10;;;1.90;;
9536;SDS011;4807;48.024;11.726;2022-10-17T05:26:01;1.97;;;1.77;;
9536;SDS011;4807;48.024;11.726;2022-10-17T05:29:09;4.57;;;1.40;;
9536;SDS011;4807;48.024;11.726;2022-10-17T05:32:23;1.00;;;0.90;;
9536;SDS011;4807;48.024;11.726;2022-10-17T05:35:35;2.20;;;1.30;;
9536;SDS011;4807;48.024;11.726;2022-10-17T05:38:47;1.10;;;1.00;;
9536;SDS011;4807;48.024;11.726;2022-10-17T05:41:57;1.20;;;1.00;;
9536;SDS011;4807;48.024;11.726;2022-10-17T05:45:06;1.90;;;0.90;;
9536;SDS011;4807;48.024;11.726;2022-10-17T05:48:15;2.50;;;1.50;;
9536;SDS011;4807;48.024;11.726;2022-10-17T05:51:25;1.67;;;1.57;;
9536;SDS011;4807;48.024;11.726;2022-10-17T05:54:35;1.77;;;1.50;;
9536;SDS011;4807;48.024;11.726;2022-10-17T05:57:44;1.83;;;1.50;;
9536;SDS011;4807;48.024;11.726;2022-10-17T06:00:59;1.70;;;1.27;;
9536;SDS011;4807;48.024;11.726;2022-10-17T06:04:13;6.73;;;1.67;;
9536;SDS011;4807;48.024;11.726;2022-10-17T06:07:23;2.97;;;1.30;;
9536;SDS011;4807;48.024;11.726;2022-10-17T06:10:32;3.53;;;1.10;;
9536;SDS011;4807;48.024;11.726;2022-10-17T06:13:40;2.23;;;1.47;;
9536;SDS011;4807;48.024;11.726;2022-10-17T06:16:54;2.20;;;1.20;;
9536;SDS011;4807;48.024;11.726;2022-10-17T06:20:03;3.40;;;1.00;;
9536;SDS011;4807;48.024;11.726;2022-10-17T06:23:14;3.50;;;1.20;;
9536;SDS011;4807;48.024;11.726;2022-10-17T06:26:37;3.07;;;1.30;;
9536;SDS011;4807;48.024;11.726;2022-10-17T06:29:47;2.23;;;1.20;;
9536;SDS011;4807;48.024;11.726;2022-10-17T06:32:56;2.77;;;1.20;;
9536;SDS011;4807;48.024;11.726;2022-10-17T06:36:05;1.40;;;1.30;;
9536;SDS011;4807;48.024;11.726;2022-10-17T06:39:20;2.70;;;1.27;;
9536;SDS011;4807;48.024;11.726;2022-10-17T06:42:43;2.07;;;1.47;;
9536;SDS011;4807;48.024;11.726;2022-10-17T06:46:16;1.50;;;1.30;;
9536;SDS011;4807;48.024;11.726;2022-10-17T06:49:40;1.83;;;1.67;;
9536;SDS011;4807;48.024;11.726;2022-10-17T06:53:08;1.60;;;1.43;;
9536;SDS011;4807;48.024;11.726;2022-10-17T06:56:54;1.07;;;0.97;;
9536;SDS011;4807;48.024;11.726;2022-10-17T07:00:21;3.77;;;1.50;;
9536;SDS011;4807;48.024;11.726;2022-10-17T07:03:33;2.83;;;1.40;;
9536;SDS011;4807;48.024;11.726;2022-10-17T07:06:41;3.83;;;1.63;;
9536;SDS011;4807;48.024;11.726;2022-10-17T07:09:58;3.37;;;1.70;;
9536;SDS011;4807;48.024;11.726;2022-10-17T07:13:08;2.70;;;2.03;;
9536;SDS011;4807;48.024;11.726;2022-10-17T07:16:19;2.33;;;1.30;;
9536;SDS011;4807;48.024;11.726;2022-10-17T07:19:39;1.50;;;1.40;;
9536;SDS011;4807;48.024;11.726;2022-10-17T07:22:49;2.03;;;1.70;;
9536;SDS011;4807;48.024;11.726;2022-10-17T07:25:58;1.90;;;1.43;;
9536;SDS011;4807;48.024;11.726;2022-10-17T07:29:09;1.67;;;1.57;;
9536;SDS011;4807;48.024;11.726;2022-10-17T07:32:22;3.70;;;1.40;;
9536;SDS011;4807;48.024;11.726;2022-10-17T07:35:30;3.30;;;1.70;;
9536;SDS011;4807;48.024;11.726;2022-10-17T07:38:39;1.83;;;1.53;;
9536;SDS011;4807;48.024;11.726;2022-10-17T07:41:48;2.10;;;1.90;;
9536;SDS011;4807;48.024;11.726;2022-10-17T07:44:59;3.03;;;1.83;;
9536;SDS011;4807;48.024;11.726;2022-10-17T07:48:09;3.13;;;1.83;;
9536;SDS011;4807;48.024;11.726;2022-10-17T07:51:18;1.90;;;1.77;;
9536;SDS011;4807;48.024;11.726;2022-10-17T07:54:27;5.07;;;2.03;;
9536;SDS011;4807;48.024;11.726;2022-10-17T07:57:35;2.13;;;1.83;;
9536;SDS011;4807;48.024;11.726;2022-10-17T08:00:47;3.80;;;2.30;;
9536;SDS011;4807;48.024;11.726;2022-10-17T08:03:56;2.80;;;1.87;;
9536;SDS011;4807;48.024;11.726;2022-10-17T08:07:05;2.37;;;2.17;;
9536;SDS011;4807;48.024;11.726;2022-10-17T08:10:29;2.77;;;2.03;;
9536;SDS011;4807;48.024;11.726;2022-10-17T08:13:38;3.03;;;1.63;;
9536;SDS011;4807;48.024;11.726;2022-10-17T08:16:49;3.80;;;1.87;;
9536;SDS011;4807;48.024;11.726;2022-10-17T08:20:00;2.07;;;1.80;;
9536;SDS011;4807;48.024;11.726;2022-10-17T08:23:10;4.97;;;1.87;;
9536;SDS011;4807;48.024;11.726;2022-10-17T08:26:18;2.43;;;1.80;;
9536;SDS011;4807;48.024;11.726;2022-10-17T08:29:28;3.27;;;1.63;;
9536;SDS011;4807;48.024;11.726;2022-10-17T08:32:40;4.40;;;1.57;;
9536;SDS011;4807;48.024;11.726;2022-10-17T08:35:48;2.87;;;1.60;;
9536;SDS011;4807;48.024;11.726;2022-10-17T08:38:58;2.10;;;1.83;;
9536;SDS011;4807;48.024;11.726;2022-10-17T08:42:21;2.57;;;1.70;;
9536;SDS011;4807;48.024;11.726;2022-10-17T08:45:57;3.73;;;1.70;;
9536;SDS011;4807;48.024;11.726;2022-10-17T08:49:12;2.40;;;1.87;;
9536;SDS011;4807;48.024;11.726;2022-10-17T08:52:31;2.20;;;2.00;;
9536;SDS011;4807;48.024;11.726;2022-10-17T08:55:48;3.50;;;1.80;;
9536;SDS011;4807;48.024;11.726;2022-10-17T08:59:00;5.23;;;1.70;;
9536;SDS011;4807;48.024;11.726;2022-10-17T09:02:20;2.90;;;1.90;;
9536;SDS011;4807;48.024;11.726;2022-10-17T09:05:47;3.37;;;1.70;;
9536;SDS011;4807;48.024;11.726;2022-10-17T09:09:19;2.90;;;1.70;;
9536;SDS011;4807;48.024;11.726;2022-10-17T09:12:39;2.50;;;1.80;;
9536;SDS011;4807;48.024;11.726;2022-10-17T09:16:03;1.67;;;1.43;;
9536;SDS011;4807;48.024;11.726;2022-10-17T09:19:32;2.00;;;1.80;;
9536;SDS011;4807;48.024;11.726;2022-10-17T09:22:50;4.17;;;1.70;;
9536;SDS011;4807;48.024;11.726;2022-10-17T09:26:07;1.73;;;1.50;;
9536;SDS011;4807;48.024;11.726;2022-10-17T09:29:19;1.60;;;1.50;;
9536;SDS011;4807;48.024;11.726;2022-10-17T09:32:39;1.90;;;1.33;;
9536;SDS011;4807;48.024;11.726;2022-10-17T09:35:48;1.87;;;1.60;;
9536;SDS011;4807;48.024;11.726;2022-10-17T09:39:03;1.93;;;1.33;;
9536;SDS011;4807;48.024;11.726;2022-10-17T09:42:19;1.63;;;1.40;;
9536;SDS011;4807;48.024;11.726;2022-10-17T09:45:36;2.67;;;1.60;;
9536;SDS011;4807;48.024;11.726;2022-10-17T09:48:54;1.77;;;1.67;;
9536;SDS011;4807;48.024;11.726;2022-10-17T09:52:24;2.03;;;1.50;;
9536;SDS011;4807;48.024;11.726;2022-10-17T09:55:41;3.97;;;1.47;;
9536;SDS011;4807;48.024;11.726;2022-10-17T09:58:55;1.80;;;1.57;;
9536;SDS011;4807;48.024;11.726;2022-10-17T10:02:11;1.30;;;1.30;;
9536;SDS011;4807;48.024;11.726;2022-10-17T10:05:27;2.80;;;1.20;;
9536;SDS011;4807;48.024;11.726;2022-10-17T10:08:36;1.33;;;1.27;;
9536;SDS011;4807;48.024;11.726;2022-10-17T10:11:59;1.43;;;1.33;;
9536;SDS011;4807;48.024;11.726;2022-10-17T10:15:29;2.20;;;1.37;;
9536;SDS011;4807;48.024;11.726;2022-10-17T10:18:42;1.50;;;1.37;;
9536;SDS011;4807;48.024;11.726;2022-10-17T10:21:55;2.30;;;1.83;;
9536;SDS011;4807;48.024;11.726;2022-10-17T10:25:07;1.33;;;1.23;;
9536;SDS011;4807;48.024;11.726;2022-10-17T10:28:27;1.30;;;1.20;;
9536;SDS011;4807;48.024;11.726;2022-10-17T10:31:40;1.87;;;1.47;;
9536;SDS011;4807;48.024;11.726;2022-10-17T10:34:49;2.53;;;1.27;;
9536;SDS011;4807;48.024;11.726;2022-10-17T10:38:07;2.77;;;1.20;;
9536;SDS011;4807;48.024;11.726;2022-10-17T10:41:22;1.30;;;1.20;;
9536;SDS011;4807;48.024;11.726;2022-10-17T10:44:35;2.83;;;1.57;;
9536;SDS011;4807;48.024;11.726;2022-10-17T10:47:53;1.50;;;1.40;;
9536;SDS011;4807;48.024;11.726;2022-10-17T10:51:06;2.73;;;1.50;;
9536;SDS011;4807;48.024;11.726;2022-10-17T10:54:24;1.30;;;1.20;;
9536;SDS011;4807;48.024;11.726;2022-10-17T10:57:41;2.20;;;1.57;;
9536;SDS011;4807;48.024;11.726;2022-10-17T11:00:57;1.83;;;1.30;;
9536;SDS011;4807;48.024;11.726;2022-10-17T11:04:18;1.00;;;1.00;;
9536;SDS011;4807;48.024;11.726;2022-10-17T11:07:35;2.60;;;1.00;;
9536;SDS011;4807;48.024;11.726;2022-10-17T11:10:55;1.73;;;1.50;;
9536;SDS011;4807;48.024;11.726;2022-10-17T11:14:15;3.23;;;1.73;;
9536;SDS011;4807;48.024;11.726;2022-10-17T11:17:44;1.10;;;1.00;;
9536;SDS011;4807;48.024;11.726;2022-10-17T11:21:03;2.20;;;1.00;;
9536;SDS011;4807;48.024;11.726;2022-10-17T11:24:20;1.30;;;1.03;;
9536;SDS011;4807;48.024;11.726;2022-10-17T11:27:34;2.40;;;1.10;;
9536;SDS011;4807;48.024;11.726;2022-10-17T11:30:47;1.43;;;1.07;;
9536;SDS011;4807;48.024;11.726;2022-10-17T11:34:03;2.37;;;1.40;;
9536;SDS011;4807;48.024;11.726;2022-10-17T11:37:26;2.83;;;0.97;;
9536;SDS011;4807;48.024;11.726;2022-10-17T11:40:43;2.40;;;1.00;;
9536;SDS011;4807;48.024;11.726;2022-10-17T11:43:56;1.20;;;1.10;;
9536;SDS011;4807;48.024;11.726;2022-10-17T11:47:12;2.70;;;1.07;;
9536;SDS011;4807;48.024;11.726;2022-10-17T11:50:37;5.77;;;1.33;;
9536;SDS011;4807;48.024;11.726;2022-10-17T11:54:11;1.10;;;1.00;;
9536;SDS011;4807;48.024;11.726;2022-10-17T11:57:34;1.40;;;1.30;;
9536;SDS011;4807;48.024;11.726;2022-10-17T12:01:02;2.13;;;1.10;;
9536;SDS011;4807;48.024;11.726;2022-10-17T12:04:29;1.23;;;1.00;;
9536;SDS011;4807;48.024;11.726;2022-10-17T12:07:58;1.90;;;1.10;;
9536;SDS011;4807;48.024;11.726;2022-10-17T12:11:18;2.70;;;1.17;;
9536;SDS011;4807;48.024;11.726;2022-10-17T12:14:41;1.00;;;1.00;;
9536;SDS011;4807;48.024;11.726;2022-10-17T12:17:53;1.17;;;1.00;;
9536;SDS011;4807;48.024;11.726;2022-10-17T12:21:04;0.90;;;0.90;;
9536;SDS011;4807;48.024;11.726;2022-10-17T12:24:21;2.73;;;1.20;;
9536;SDS011;4807;48.024;11.726;2022-10-17T12:27:46;2.93;;;0.90;;
9536;SDS011;4807;48.024;11.726;2022-10-17T12:30:59;0.77;;;0.77;;
9536;SDS011;4807;48.024;11.726;2022-10-17T12:34:13;1.10;;;1.00;;
9536;SDS011;4807;48.024;11.726;2022-10-17T12:45:00;1.43;;;0.90;;
9536;SDS011;4807;48.024;11.726;2022-10-17T12:48:09;0.90;;;0.80;;
9536;SDS011;4807;48.024;11.726;2022-10-17T12:51:19;0.97;;;0.80;;
9536;SDS011;4807;48.024;11.726;2022-10-17T12:54:46;1.40;;;1.30;;
9536;SDS011;4807;48.024;11.726;2022-10-17T12:58:18;1.10;;;0.73;;
9536;SDS011;4807;48.024;11.726;2022-10-17T13:01:28;1.03;;;0.90;;
9536;SDS011;4807;48.024;11.726;2022-10-17T13:04:39;1.47;;;1.20;;
9536;SDS011;4807;48.024;11.726;2022-10-17T13:07:47;1.67;;;1.10;;
9536;SDS011;4807;48.024;11.726;2022-10-17T13:10:58;0.73;;;0.70;;
9536;SDS011;4807;48.024;11.726;2022-10-17T13:14:10;0.80;;;0.80;;
9536;SDS011;4807;48.024;11.726;2022-10-17T13:17:24;0.97;;;0.97;;
9536;SDS011;4807;48.024;11.726;2022-10-17T13:20:36;0.83;;;0.83;;
9536;SDS011;4807;48.024;11.726;2022-10-17T13:23:44;1.07;;;0.80;;
9536;SDS011;4807;48.024;11.726;2022-10-17T13:26:56;2.40;;;0.90;;
9536;SDS011;4807;48.024;11.726;2022-10-17T13:30:25;1.03;;;0.80;;
9536;SDS011;4807;48.024;11.726;2022-10-17T13:33:39;1.00;;;1.00;;
9536;SDS011;4807;48.024;11.726;2022-10-17T13:36:49;3.60;;;0.90;;
9536;SDS011;4807;48.024;11.726;2022-10-17T13:40:02;1.13;;;1.13;;
9536;SDS011;4807;48.024;11.726;2022-10-17T13:43:30;1.40;;;1.00;;
9536;SDS011;4807;48.024;11.726;2022-10-17T13:46:40;1.20;;;1.10;;
9536;SDS011;4807;48.024;11.726;2022-10-17T13:49:51;1.07;;;0.97;;
9536;SDS011;4807;48.024;11.726;2022-10-17T13:53:05;0.80;;;0.80;;
9536;SDS011;4807;48.024;11.726;2022-10-17T13:56:23;1.37;;;0.90;;
9536;SDS011;4807;48.024;11.726;2022-10-17T13:59:36;1.47;;;0.77;;
9536;SDS011;4807;48.024;11.726;2022-10-17T14:02:50;1.00;;;0.90;;
9536;SDS011;4807;48.024;11.726;2022-10-17T14:06:11;1.03;;;0.93;;
9536;SDS011;4807;48.024;11.726;2022-10-17T14:09:24;1.20;;;1.10;;
9536;SDS011;4807;48.024;11.726;2022-10-17T14:12:36;0.80;;;0.80;;
9536;SDS011;4807;48.024;11.726;2022-10-17T14:15:58;2.60;;;1.63;;
9536;SDS011;4807;48.024;11.726;2022-10-17T14:19:15;2.20;;;0.93;;
9536;SDS011;4807;48.024;11.726;2022-10-17T14:22:34;0.90;;;0.90;;
9536;SDS011;4807;48.024;11.726;2022-10-17T14:25:43;0.90;;;0.80;;
9536;SDS011;4807;48.024;11.726;2022-10-17T14:29:01;1.47;;;1.10;;
9536;SDS011;4807;48.024;11.726;2022-10-17T14:32:13;3.63;;;0.90;;
9536;SDS011;4807;48.024;11.726;2022-10-17T14:35:27;2.43;;;1.07;;
9536;SDS011;4807;48.024;11.726;2022-10-17T14:38:48;1.03;;;0.93;;
9536;SDS011;4807;48.024;11.726;2022-10-17T14:41:58;1.20;;;0.90;;
9536;SDS011;4807;48.024;11.726;2022-10-17T14:45:11;1.03;;;1.00;;
9536;SDS011;4807;48.024;11.726;2022-10-17T14:48:29;1.00;;;0.90;;
9536;SDS011;4807;48.024;11.726;2022-10-17T14:51:39;1.00;;;1.00;;
9536;SDS011;4807;48.024;11.726;2022-10-17T14:55:20;1.03;;;0.90;;
9536;SDS011;4807;48.024;11.726;2022-10-17T14:58:31;2.03;;;0.70;;
9536;SDS011;4807;48.024;11.726;2022-10-17T15:01:49;0.80;;;0.80;;
9536;SDS011;4807;48.024;11.726;2022-10-17T15:04:58;1.30;;;0.90;;
9536;SDS011;4807;48.024;11.726;2022-10-17T15:08:09;1.40;;;0.90;;
9536;SDS011;4807;48.024;11.726;2022-10-17T15:11:21;1.17;;;0.73;;
9536;SDS011;4807;48.024;11.726;2022-10-17T15:14:29;1.10;;;1.00;;
9536;SDS011;4807;48.024;11.726;2022-10-17T15:17:40;0.90;;;0.90;;
9536;SDS011;4807;48.024;11.726;2022-10-17T15:20:49;2.07;;;0.90;;
9536;SDS011;4807;48.024;11.726;2022-10-17T15:24:13;2.53;;;0.90;;
9536;SDS011;4807;48.024;11.726;2022-10-17T15:27:33;1.93;;;0.90;;
9536;SDS011;4807;48.024;11.726;2022-10-17T15:30:45;0.80;;;0.80;;
9536;SDS011;4807;48.024;11.726;2022-10-17T15:33:54;0.70;;;0.70;;
9536;SDS011;4807;48.024;11.726;2022-10-17T15:37:02;0.80;;;0.80;;
9536;SDS011;4807;48.024;11.726;2022-10-17T15:40:15;1.07;;;0.97;;
9536;SDS011;4807;48.024;11.726;2022-10-17T15:43:26;2.10;;;1.03;;
9536;SDS011;4807;48.024;11.726;2022-10-17T15:46:34;1.50;;;1.33;;
9536;SDS011;4807;48.024;11.726;2022-10-17T15:49:47;1.57;;;1.07;;
9536;SDS011;4807;48.024;11.726;2022-10-17T15:52:55;2.53;;;1.10;;
9536;SDS011;4807;48.024;11.726;2022-10-17T15:56:05;1.83;;;1.20;;
9536;SDS011;4807;48.024;11.726;2022-10-17T15:59:27;2.70;;;1.20;;
9536;SDS011;4807;48.024;11.726;2022-10-17T16:02:40;2.43;;;1.03;;
9536;SDS011;4807;48.024;11.726;2022-10-17T16:05:49;1.30;;;1.17;;
9536;SDS011;4807;48.024;11.726;2022-10-17T16:08:57;1.97;;;1.00;;
9536;SDS011;4807;48.024;11.726;2022-10-17T16:12:10;3.43;;;1.20;;
9536;SDS011;4807;48.024;11.726;2022-10-17T16:15:25;2.60;;;1.10;;
9536;SDS011;4807;48.024;11.726;2022-10-17T16:18:36;7.13;;;1.80;;
9536;SDS011;4807;48.024;11.726;2022-10-17T16:21:47;5.90;;;4.00;;
9536;SDS011;4807;48.024;11.726;2022-10-17T16:24:55;2.90;;;2.60;;
9536;SDS011;4807;48.024;11.726;2022-10-17T16:28:14;2.23;;;2.03;;
9536;SDS011;4807;48.024;11.726;2022-10-17T16:31:25;4.93;;;1.20;;
9536;SDS011;4807;48.024;11.726;2022-10-17T16:34:37;1.67;;;1.50;;
9536;SDS011;4807;48.024;11.726;2022-10-17T16:37:46;2.67;;;1.40;;
9536;SDS011;4807;48.024;11.726;2022-10-17T16:40:55;3.70;;;2.00;;
9536;SDS011;4807;48.024;11.726;2022-10-17T16:44:06;4.07;;;1.47;;
9536;SDS011;4807;48.024;11.726;2022-10-17T16:47:18;2.80;;;1.70;;
9536;SDS011;4807;48.024;11.726;2022-10-17T16:50:27;3.40;;;1.70;;
9536;SDS011;4807;48.024;11.726;2022-10-17T16:53:41;3.87;;;2.43;;
9536;SDS011;4807;48.024;11.726;2022-10-17T16:56:50;6.40;;;2.37;;
9536;SDS011;4807;48.024;11.726;2022-10-17T17:00:00;6.13;;;2.93;;
9536;SDS011;4807;48.024;11.726;2022-10-17T17:03:08;6.17;;;3.47;;
9536;SDS011;4807;48.024;11.726;2022-10-17T17:06:18;4.73;;;3.37;;
9536;SDS011;4807;48.024;11.726;2022-10-17T17:09:31;4.63;;;3.10;;
9536;SDS011;4807;48.024;11.726;2022-10-17T17:12:40;3.67;;;2.27;;
9536;SDS011;4807;48.024;11.726;2022-10-17T17:15:50;2.13;;;1.90;;
9536;SDS011;4807;48.024;11.726;2022-10-17T17:19:00;2.63;;;1.80;;
9536;SDS011;4807;48.024;11.726;2022-10-17T17:22:11;5.90;;;2.43;;
9536;SDS011;4807;48.024;11.726;2022-10-17T17:25:20;5.43;;;3.67;;
9536;SDS011;4807;48.024;11.726;2022-10-17T17:28:29;4.33;;;3.50;;
9536;SDS011;4807;48.024;11.726;2022-10-17T17:31:40;4.50;;;4.10;;
9536;SDS011;4807;48.024;11.726;2022-10-17T17:34:49;6.33;;;4.27;;
9536;SDS011;4807;48.024;11.726;2022-10-17T17:37:57;6.10;;;4.47;;
9536;SDS011;4807;48.024;11.726;2022-10-17T17:41:09;4.70;;;4.00;;
9536;SDS011;4807;48.024;11.726;2022-10-17T17:44:19;4.40;;;4.00;;
9536;SDS011;4807;48.024;11.726;2022-10-17T17:47:29;3.77;;;3.47;;
9536;SDS011;4807;48.024;11.726;2022-10-17T17:50:38;4.77;;;3.57;;
9536;SDS011;4807;48.024;11.726;2022-10-17T17:53:48;4.57;;;3.83;;
9536;SDS011;4807;48.024;11.726;2022-10-17T17:56:58;4.00;;;3.43;;
9536;SDS011;4807;48.024;11.726;2022-10-17T18:00:10;3.40;;;3.10;;
9536;SDS011;4807;48.024;11.726;2022-10-17T18:03:21;5.60;;;3.73;;
9536;SDS011;4807;48.024;11.726;2022-10-17T18:06:30;4.03;;;3.03;;
9536;SDS011;4807;48.024;11.726;2022-10-17T18:09:38;2.80;;;2.57;;
9536;SDS011;4807;48.024;11.726;2022-10-17T18:12:47;3.20;;;2.57;;
9536;SDS011;4807;48.024;11.726;2022-10-17T18:15:55;2.80;;;2.60;;
9536;SDS011;4807;48.024;11.726;2022-10-17T18:19:07;2.43;;;2.23;;
9536;SDS011;4807;48.024;11.726;2022-10-17T18:22:18;4.10;;;2.30;;
9536;SDS011;4807;48.024;11.726;2022-10-17T18:25:28;5.00;;;2.30;;
9536;SDS011;4807;48.024;11.726;2022-10-17T18:28:37;4.17;;;2.10;;
9536;SDS011;4807;48.024;11.726;2022-10-17T18:31:47;3.17;;;2.00;;
9536;SDS011;4807;48.024;11.726;2022-10-17T18:34:57;1.80;;;1.57;;
9536;SDS011;4807;48.024;11.726;2022-10-17T18:38:05;2.83;;;1.73;;
9536;SDS011;4807;48.024;11.726;2022-10-17T18:41:14;3.07;;;1.60;;
9536;SDS011;4807;48.024;11.726;2022-10-17T18:44:24;2.37;;;1.50;;
9536;SDS011;4807;48.024;11.726;2022-10-17T18:47:33;1.83;;;1.53;;
9536;SDS011;4807;48.024;11.726;2022-10-17T18:50:43;4.33;;;1.83;;
9536;SDS011;4807;48.024;11.726;2022-10-17T18:53:55;3.57;;;1.63;;
9536;SDS011;4807;48.024;11.726;2022-10-17T18:57:04;3.90;;;1.80;;
9536;SDS011;4807;48.024;11.726;2022-10-17T19:00:13;6.50;;;1.57;;
9536;SDS011;4807;48.024;11.726;2022-10-17T19:03:22;2.07;;;1.70;;
9536;SDS011;4807;48.024;11.726;2022-10-17T19:06:33;4.70;;;1.83;;
9536;SDS011;4807;48.024;11.726;2022-10-17T19:09:46;2.50;;;2.30;;
9536;SDS011;4807;48.024;11.726;2022-10-17T19:12:55;2.70;;;1.60;;
9536;SDS011;4807;48.024;11.726;2022-10-17T19:16:07;2.10;;;2.00;;
9536;SDS011;4807;48.024;11.726;2022-10-17T19:19:18;3.07;;;2.20;;
9536;SDS011;4807;48.024;11.726;2022-10-17T19:22:33;3.80;;;2.17;;
9536;SDS011;4807;48.024;11.726;2022-10-17T19:25:41;5.43;;;2.37;;
9536;SDS011;4807;48.024;11.726;2022-10-17T19:28:50;2.47;;;2.20;;
9536;SDS011;4807;48.024;11.726;2022-10-17T19:32:00;3.03;;;2.30;;
9536;SDS011;4807;48.024;11.726;2022-10-17T19:35:09;2.20;;;2.00;;
9536;SDS011;4807;48.024;11.726;2022-10-17T19:38:20;2.97;;;2.03;;
9536;SDS011;4807;48.024;11.726;2022-10-17T19:41:28;2.33;;;1.80;;
9536;SDS011;4807;48.024;11.726;2022-10-17T19:44:37;2.33;;;2.10;;
9536;SDS011;4807;48.024;11.726;2022-10-17T19:47:46;3.10;;;2.00;;
9536;SDS011;4807;48.024;11.726;2022-10-17T19:50:54;2.53;;;1.60;;
9536;SDS011;4807;48.024;11.726;2022-10-17T19:54:04;3.17;;;2.00;;
9536;SDS011;4807;48.024;11.726;2022-10-17T19:57:12;3.00;;;1.80;;
9536;SDS011;4807;48.024;11.726;2022-10-17T20:00:21;3.10;;;1.80;;